Alpine Melina — VRGM5 — position and weather

sailwx.info

Track history (hours):
 
Tides and Currents Weather Stations Pressure Air Temp Water Temp Dewpoint Dewpoint Depression Visibility Wind Speed Wind Dir Waves Ship Positions

Alpine Melina

Last reported at 2018-Jun-07 19:24 UTC. Time now 2018-Jun-25 11:39 UTC.
Position N 09°11' W 079°52'.
Warning: this ship's position is 17 days out of date.

Length 183 m; draft 11.2 m.

Type: Tanker. MMSI: 477733900.

Date/timePositionNaut miles runAvg speedWind from/ knotsBaromVisibWave heightAir tempDewpointWater temp
2018-Jun-07 19:24N 09°11' W 079°52'4 9.6
2018-Jun-07 18:59N 09°13' W 079°56'1 1.4
2018-Jun-07 18:29N 09°14' W 079°56'0 0.1
2018-Jun-07 17:59N 09°14' W 079°56'0 0.1
2018-Jun-07 17:22N 09°14' W 079°56'0 0.1
2018-Jun-07 15:17N 09°14' W 079°56'0 0.0
2018-Jun-07 14:59N 09°14' W 079°56'0 0.0
2018-Jun-07 13:20N 09°14' W 079°56'0 0.0
2018-Jun-07 10:02N 09°14' W 079°56'0 0.0
2018-Jun-07 08:58N 09°14' W 079°56'2 4.4
2018-Jun-07 08:30N 09°16' W 079°55'1 1.0
2018-Jun-07 08:00N 09°16' W 079°55'0 0.5
2018-Jun-07 07:30N 09°17' W 079°55'0 0.5
2018-Jun-07 07:01N 09°17' W 079°55'1 2.8
2018-Jun-07 06:30N 09°18' W 079°55'4 8.0
2018-Jun-07 06:01N 09°22' W 079°55'3 6.6
2018-Jun-07 05:30N 09°26' W 079°55'2 4.8
2018-Jun-07 05:01N 09°27' W 079°57'0 0.1
2018-Jun-07 04:30N 09°27' W 079°57'0 0.0
2018-Jun-07 03:57N 09°27' W 079°57'0 0.0
2018-Jun-07 03:30N 09°27' W 079°57'0 0.0
2018-Jun-07 02:57N 09°27' W 079°57'0 0.0
2018-Jun-07 02:27N 09°27' W 079°57'0 0.0
2018-Jun-07 02:00N 09°27' W 079°57'0 0.0
2018-Jun-07 01:30N 09°27' W 079°57'0 0.0
2018-Jun-07 01:00N 09°27' W 079°57'0 0.0
2018-Jun-07 00:30N 09°27' W 079°57'0 0.0
2018-Jun-07 00:00N 09°27' W 079°57'0 0.0
2018-Jun-06 23:30N 09°27' W 079°57'0 0.0
2018-Jun-06 23:00N 09°27' W 079°57'0 0.0
2018-Jun-06 22:30N 09°27' W 079°57'0 0.0
2018-Jun-06 22:00N 09°27' W 079°57'0 0.0
2018-Jun-06 21:18N 09°27' W 079°57'0 0.0
2018-Jun-06 20:57N 09°27' W 079°57'0 0.0
2018-Jun-06 20:30N 09°27' W 079°57'0 0.0
2018-Jun-06 20:00N 09°27' W 079°57'0 0.0
2018-Jun-06 19:30N 09°27' W 079°57'0 0.0
2018-Jun-06 19:00N 09°27' W 079°57'0 0.0
2018-Jun-06 18:30N 09°27' W 079°57'0 0.0
2018-Jun-06 18:00N 09°27' W 079°57'0 0.0
2018-Jun-06 17:30N 09°27' W 079°57'0 0.0
2018-Jun-06 17:00N 09°27' W 079°57'0 0.0
2018-Jun-06 16:30N 09°27' W 079°57'0 0.1
2018-Jun-06 15:57N 09°27' W 079°57'0 1.0
2018-Jun-06 15:30N 09°27' W 079°56'3 6.6
2018-Jun-06 15:00N 09°30' W 079°54'3 6.2
2018-Jun-06 14:30N 09°33' W 079°53'510.6
2018-Jun-06 14:00N 09°38' W 079°52'1012.0
2018-Jun-06 13:09N 09°48' W 079°51'  
Track history (hours):
 
Tides and Currents Weather Stations Pressure Air Temp Water Temp Dewpoint Dewpoint Depression Visibility Wind Speed Wind Dir Waves Ship Positions

Alpine Melina

Last reported at 2018-Jun-07 19:24 UTC. Time now 2018-Jun-25 11:39 UTC.
Position N 09°11' W 079°52'.
Warning: this ship's position is 17 days out of date.

Length 183 m; draft 11.2 m.

Type: Tanker. MMSI: 477733900.

Date/timePositionNaut miles runAvg speedWind from/ knotsBaromVisibWave heightAir tempDewpointWater temp
2018-Jun-07 19:24N 09°11' W 079°52'4 9.6
2018-Jun-07 18:59N 09°13' W 079°56'1 1.4
2018-Jun-07 18:29N 09°14' W 079°56'0 0.1
2018-Jun-07 17:59N 09°14' W 079°56'0 0.1
2018-Jun-07 17:22N 09°14' W 079°56'0 0.1
2018-Jun-07 15:17N 09°14' W 079°56'0 0.0
2018-Jun-07 14:59N 09°14' W 079°56'0 0.0
2018-Jun-07 13:20N 09°14' W 079°56'0 0.0
2018-Jun-07 10:02N 09°14' W 079°56'0 0.0
2018-Jun-07 08:58N 09°14' W 079°56'2 4.4
2018-Jun-07 08:30N 09°16' W 079°55'1 1.0
2018-Jun-07 08:00N 09°16' W 079°55'0 0.5
2018-Jun-07 07:30N 09°17' W 079°55'0 0.5
2018-Jun-07 07:01N 09°17' W 079°55'1 2.8
2018-Jun-07 06:30N 09°18' W 079°55'4 8.0
2018-Jun-07 06:01N 09°22' W 079°55'3 6.6
2018-Jun-07 05:30N 09°26' W 079°55'2 4.8
2018-Jun-07 05:01N 09°27' W 079°57'0 0.1
2018-Jun-07 04:30N 09°27' W 079°57'0 0.0
2018-Jun-07 03:57N 09°27' W 079°57'0 0.0
2018-Jun-07 03:30N 09°27' W 079°57'0 0.0
2018-Jun-07 02:57N 09°27' W 079°57'0 0.0
2018-Jun-07 02:27N 09°27' W 079°57'0 0.0
2018-Jun-07 02:00N 09°27' W 079°57'0 0.0
2018-Jun-07 01:30N 09°27' W 079°57'0 0.0
2018-Jun-07 01:00N 09°27' W 079°57'0 0.0
2018-Jun-07 00:30N 09°27' W 079°57'0 0.0
2018-Jun-07 00:00N 09°27' W 079°57'0 0.0
2018-Jun-06 23:30N 09°27' W 079°57'0 0.0
2018-Jun-06 23:00N 09°27' W 079°57'0 0.0
2018-Jun-06 22:30N 09°27' W 079°57'0 0.0
2018-Jun-06 22:00N 09°27' W 079°57'0 0.0
2018-Jun-06 21:18N 09°27' W 079°57'0 0.0
2018-Jun-06 20:57N 09°27' W 079°57'0 0.0
2018-Jun-06 20:30N 09°27' W 079°57'0 0.0
2018-Jun-06 20:00N 09°27' W 079°57'0 0.0
2018-Jun-06 19:30N 09°27' W 079°57'0 0.0
2018-Jun-06 19:00N 09°27' W 079°57'0 0.0
2018-Jun-06 18:30N 09°27' W 079°57'0 0.0
2018-Jun-06 18:00N 09°27' W 079°57'0 0.0
2018-Jun-06 17:30N 09°27' W 079°57'0 0.0
2018-Jun-06 17:00N 09°27' W 079°57'0 0.0
2018-Jun-06 16:30N 09°27' W 079°57'0 0.1
2018-Jun-06 15:57N 09°27' W 079°57'0 1.0
2018-Jun-06 15:30N 09°27' W 079°56'3 6.6
2018-Jun-06 15:00N 09°30' W 079°54'3 6.2
2018-Jun-06 14:30N 09°33' W 079°53'510.6
2018-Jun-06 14:00N 09°38' W 079°52'1012.0
2018-Jun-06 13:09N 09°48' W 079°51'  

Dump ship's entire track history